createdAt,value
2019-01-29T00:01:35.974Z,19.90
2019-01-29T00:04:05.247Z,19.70
2019-01-29T00:06:34.258Z,20.27
2019-01-29T00:09:05.309Z,20.50
2019-01-29T00:11:34.699Z,21.00
2019-01-29T00:14:03.864Z,22.70
2019-01-29T00:16:32.801Z,21.47
2019-01-29T00:19:01.860Z,19.80
2019-01-29T00:21:30.882Z,20.73
2019-01-29T00:24:00.286Z,20.93
2019-01-29T00:26:29.300Z,21.73
2019-01-29T00:28:58.364Z,21.93
2019-01-29T00:31:27.386Z,22.93
2019-01-29T00:33:56.457Z,23.60
2019-01-29T00:36:25.518Z,23.50
2019-01-29T00:38:54.618Z,21.97
2019-01-29T00:41:23.636Z,22.67
2019-01-29T00:43:52.660Z,22.77
2019-01-29T00:46:21.718Z,21.90
2019-01-29T00:48:50.749Z,21.17
2019-01-29T00:51:19.803Z,22.47
2019-01-29T00:53:48.818Z,23.50
2019-01-29T00:56:17.882Z,23.90
2019-01-29T00:58:46.905Z,22.97
2019-01-29T01:01:15.965Z,21.50
2019-01-29T01:03:45.051Z,24.03
2019-01-29T01:06:14.070Z,22.40
2019-01-29T01:08:43.094Z,21.77
2019-01-29T01:11:12.158Z,22.00
2019-01-29T01:13:41.544Z,22.03
2019-01-29T01:16:10.612Z,21.37
2019-01-29T01:18:39.635Z,21.83
2019-01-29T01:21:08.651Z,21.20
2019-01-29T01:23:37.710Z,21.60
2019-01-29T01:26:06.784Z,21.03
2019-01-29T01:28:35.800Z,21.30
2019-01-29T01:31:04.963Z,19.30
2019-01-29T01:33:33.986Z,20.67
2019-01-29T01:36:03.049Z,20.10
2019-01-29T01:38:32.126Z,21.20
2019-01-29T01:41:01.514Z,20.83
2019-01-29T01:43:30.556Z,18.90
2019-01-29T01:45:59.615Z,20.83
2019-01-29T01:48:28.643Z,21.60
2019-01-29T01:50:57.709Z,19.20
2019-01-29T01:53:26.809Z,20.13
2019-01-29T01:55:56.170Z,20.80
2019-01-29T01:58:25.190Z,20.20
2019-01-29T02:00:54.586Z,19.97
2019-01-29T02:03:23.645Z,20.73
2019-01-29T02:05:52.710Z,20.23
2019-01-29T02:08:21.790Z,19.43
2019-01-29T02:10:50.801Z,19.80
2019-01-29T02:13:19.861Z,21.30
2019-01-29T02:15:48.939Z,19.63
2019-01-29T02:18:17.973Z,21.03
2019-01-29T02:20:47.335Z,19.30
2019-01-29T02:23:16.409Z,19.10
2019-01-29T02:25:45.516Z,18.60
2019-01-29T02:28:14.562Z,19.07
2019-01-29T02:30:43.582Z,19.93
2019-01-29T02:33:12.661Z,18.83
2019-01-29T02:35:41.691Z,18.30
2019-01-29T02:38:10.729Z,20.97
2019-01-29T02:40:39.803Z,19.57
2019-01-29T02:43:08.859Z,18.73
2019-01-29T02:45:37.916Z,19.03
2019-01-29T02:48:07.072Z,20.30
2019-01-29T02:50:36.107Z,20.50
2019-01-29T02:53:05.288Z,19.80
2019-01-29T02:55:34.313Z,19.87
2019-01-29T02:58:03.381Z,21.77
2019-01-29T03:00:32.450Z,24.60
2019-01-29T03:03:01.473Z,24.20
2019-01-29T03:05:30.544Z,23.40
2019-01-29T03:07:59.560Z,22.13
2019-01-29T03:10:28.839Z,19.13
2019-01-29T03:12:57.897Z,19.93
2019-01-29T03:15:29.885Z,20.00
2019-01-29T03:17:59.106Z,22.23
2019-01-29T03:20:28.375Z,21.53
2019-01-29T03:22:57.401Z,21.10
2019-01-29T03:25:26.971Z,22.00
2019-01-29T03:27:56.002Z,21.27
2019-01-29T03:30:25.215Z,20.80
2019-01-29T03:32:54.430Z,19.67
2019-01-29T03:35:23.569Z,21.63
2019-01-29T03:37:52.641Z,20.20
2019-01-29T03:40:26.243Z,21.90
2019-01-29T03:42:55.386Z,21.40
2019-01-29T03:45:24.649Z,22.57
2019-01-29T03:47:53.687Z,23.50
2019-01-29T03:50:23.077Z,21.83
2019-01-29T03:52:52.191Z,21.40
2019-01-29T03:55:21.251Z,22.30
2019-01-29T03:57:50.651Z,22.50
2019-01-29T04:00:22.117Z,20.57
2019-01-29T04:02:51.152Z,21.13
2019-01-29T04:05:22.057Z,20.07
2019-01-29T04:07:51.241Z,18.40
2019-01-29T04:10:20.752Z,19.30
2019-01-29T04:12:49.835Z,20.57
2019-01-29T04:15:19.837Z,20.60
2019-01-29T04:17:53.388Z,18.97
2019-01-29T04:20:22.618Z,17.53
2019-01-29T04:22:51.644Z,18.47
2019-01-29T04:25:23.111Z,19.37
2019-01-29T04:27:51.534Z,17.07
2019-01-29T04:30:21.868Z,16.60
2019-01-29T04:32:50.885Z,17.10
2019-01-29T04:35:19.959Z,16.70
2019-01-29T04:37:49.014Z,17.13
2019-01-29T04:40:19.673Z,16.27
2019-01-29T04:42:49.039Z,15.90
2019-01-29T04:45:19.060Z,17.40
2019-01-29T04:47:48.095Z,15.60
2019-01-29T04:50:19.238Z,16.20
2019-01-29T04:52:48.309Z,15.07
2019-01-29T04:55:17.613Z,15.70
2019-01-29T04:57:46.670Z,16.40
2019-01-29T05:00:23.809Z,15.87
2019-01-29T05:02:52.880Z,16.90
2019-01-29T05:05:25.385Z,16.40
2019-01-29T05:07:54.413Z,15.40
2019-01-29T05:10:23.569Z,16.17
2019-01-29T05:12:52.652Z,15.97
2019-01-29T05:15:23.097Z,15.07
2019-01-29T05:17:52.145Z,16.70
2019-01-29T05:20:22.872Z,15.57
2019-01-29T05:22:51.911Z,15.30
2019-01-29T05:25:21.182Z,15.03
2019-01-29T05:27:50.310Z,14.80
2019-01-29T05:30:21.504Z,15.87
2019-01-29T05:32:50.698Z,15.63
2019-01-29T05:35:19.707Z,14.50
2019-01-29T05:37:48.768Z,15.30
2019-01-29T05:40:19.023Z,16.07
2019-01-29T05:42:48.155Z,16.13
2019-01-29T05:45:18.318Z,15.27
2019-01-29T05:47:47.464Z,15.63
2019-01-29T05:50:16.855Z,15.30
2019-01-29T05:52:45.923Z,15.20
2019-01-29T05:55:15.224Z,16.10
2019-01-29T05:57:44.386Z,15.47
2019-01-29T06:00:18.879Z,15.50
2019-01-29T06:02:48.638Z,15.30
2019-01-29T06:05:18.372Z,14.80
2019-01-29T06:07:47.379Z,15.13
2019-01-29T06:10:16.694Z,15.57
2019-01-29T06:12:45.807Z,14.50
2019-01-29T06:15:16.385Z,15.13
2019-01-29T06:17:45.469Z,15.73
2019-01-29T06:20:19.584Z,14.87
2019-01-29T06:22:48.607Z,15.63
2019-01-29T06:25:17.914Z,15.00
2019-01-29T06:27:46.938Z,16.07
2019-01-29T06:30:16.952Z,15.77
2019-01-29T06:32:46.453Z,15.43
2019-01-29T06:35:16.479Z,15.53
2019-01-29T06:37:45.891Z,16.03
2019-01-29T06:40:17.367Z,15.50
2019-01-29T06:42:46.548Z,16.60
2019-01-29T06:45:16.560Z,16.50
2019-01-29T06:47:45.962Z,16.40
2019-01-29T06:50:19.962Z,15.90
2019-01-29T06:52:49.236Z,16.80
2019-01-29T06:55:19.480Z,16.10
2019-01-29T06:57:54.906Z,16.20
2019-01-29T07:00:27.677Z,15.60
2019-01-29T07:02:57.110Z,15.97
2019-01-29T07:05:26.143Z,15.43
2019-01-29T07:07:55.214Z,15.10
2019-01-29T07:10:24.630Z,14.70
2019-01-29T07:12:53.707Z,15.37
2019-01-29T07:15:41.658Z,16.33
2019-01-29T07:18:36.346Z,15.90
2019-01-29T07:21:08.257Z,14.60
2019-01-29T07:23:37.289Z,15.40
2019-01-29T07:26:06.907Z,15.20
2019-01-29T07:28:35.936Z,14.23
2019-01-29T07:31:05.062Z,14.90
2019-01-29T07:33:34.134Z,15.20
2019-01-29T07:36:03.563Z,14.70
2019-01-29T07:38:32.582Z,15.13
2019-01-29T07:41:01.699Z,15.03
2019-01-29T07:43:30.714Z,16.23
2019-01-29T07:45:59.933Z,16.30
2019-01-29T07:48:29.014Z,16.40
2019-01-29T07:50:58.060Z,15.77
2019-01-29T07:53:27.149Z,15.60
2019-01-29T07:55:56.315Z,17.20
2019-01-29T07:58:25.381Z,17.30
2019-01-29T08:00:54.441Z,17.57
2019-01-29T08:03:23.760Z,17.30
2019-01-29T08:05:52.838Z,17.50
2019-01-29T08:08:21.846Z,15.40
2019-01-29T08:10:50.884Z,16.03
2019-01-29T08:13:19.945Z,16.53
2019-01-29T08:15:49.001Z,15.67
2019-01-29T08:18:18.023Z,16.20
2019-01-29T08:20:47.089Z,17.50
2019-01-29T08:23:16.301Z,17.43
2019-01-29T08:25:47.866Z,17.57
2019-01-29T08:28:16.079Z,18.40
2019-01-29T08:30:45.136Z,16.77
2019-01-29T08:33:14.156Z,16.13
2019-01-29T08:35:43.177Z,16.30
2019-01-29T08:38:12.233Z,16.10
2019-01-29T08:40:41.285Z,16.47
2019-01-29T08:43:10.405Z,16.50
2019-01-29T08:45:39.427Z,16.30
2019-01-29T08:48:08.492Z,16.50
2019-01-29T08:50:37.526Z,17.43
2019-01-29T08:53:06.641Z,17.70
2019-01-29T08:55:35.703Z,18.40
2019-01-29T08:58:04.722Z,18.20
2019-01-29T09:00:33.786Z,17.13
2019-01-29T09:03:02.809Z,16.73
2019-01-29T09:05:31.886Z,17.13
2019-01-29T09:08:00.897Z,17.00
2019-01-29T09:10:29.910Z,17.30
2019-01-29T09:12:58.992Z,16.80
2019-01-29T09:15:28.047Z,17.93
2019-01-29T09:17:57.122Z,18.17
2019-01-29T09:20:26.137Z,17.40
2019-01-29T09:22:55.789Z,17.60
2019-01-29T09:25:24.956Z,17.90
2019-01-29T09:27:54.112Z,18.20
2019-01-29T09:30:23.260Z,17.63
2019-01-29T09:32:52.279Z,18.03
2019-01-29T09:35:21.336Z,19.27
2019-01-29T09:37:50.354Z,17.60
2019-01-29T09:40:20.177Z,17.70
2019-01-29T09:42:49.424Z,17.83
2019-01-29T09:45:19.336Z,16.87
2019-01-29T09:47:48.402Z,17.50
2019-01-29T09:50:19.653Z,16.30
2019-01-29T09:52:48.725Z,17.57
2019-01-29T09:55:18.920Z,16.47
2019-01-29T09:57:47.929Z,16.00
2019-01-29T10:00:42.225Z,16.30
2019-01-29T10:03:11.323Z,16.23
2019-01-29T10:05:41.730Z,16.93
2019-01-29T10:08:10.814Z,22.97
2019-01-29T10:10:39.865Z,19.00
2019-01-29T10:13:08.929Z,20.70
2019-01-29T10:15:38.061Z,22.17
2019-01-29T10:18:07.145Z,20.60
2019-01-29T10:20:36.172Z,19.10
2019-01-29T10:23:05.308Z,17.50
2019-01-29T10:25:37.814Z,18.10
2019-01-29T10:28:05.129Z,17.00
2019-01-29T10:30:34.097Z,16.87
2019-01-29T10:33:03.114Z,17.40
2019-01-29T10:35:32.179Z,17.30
2019-01-29T10:38:01.229Z,17.67
2019-01-29T10:40:30.272Z,17.40
2019-01-29T10:42:59.426Z,17.80
2019-01-29T10:45:29.501Z,21.90
2019-01-29T10:47:58.547Z,19.43
2019-01-29T10:50:28.578Z,17.93
2019-01-29T10:52:58.039Z,17.80
2019-01-29T10:55:28.853Z,17.10
2019-01-29T10:57:58.006Z,17.50
2019-01-29T11:00:30.108Z,17.17
2019-01-29T11:02:59.230Z,16.70
2019-01-29T11:05:28.285Z,16.53
2019-01-29T11:07:57.326Z,16.87
2019-01-29T11:10:26.353Z,16.60
2019-01-29T11:12:55.394Z,16.13
2019-01-29T11:15:27.211Z,16.87
2019-01-29T11:17:56.554Z,17.60
2019-01-29T11:20:25.578Z,16.90
2019-01-29T11:22:54.648Z,17.27
2019-01-29T11:25:28.434Z,16.97
2019-01-29T11:27:57.425Z,17.33
2019-01-29T11:30:28.419Z,17.90
2019-01-29T11:32:57.694Z,16.43
2019-01-29T11:35:26.966Z,18.10
2019-01-29T11:37:55.977Z,18.13
2019-01-29T11:40:26.454Z,19.13
2019-01-29T11:42:55.521Z,20.20
2019-01-29T11:45:27.519Z,18.30
2019-01-29T11:47:56.569Z,18.63
2019-01-29T11:50:25.593Z,18.50
2019-01-29T11:52:54.639Z,18.00
2019-01-29T11:55:26.553Z,18.27
2019-01-29T11:57:55.567Z,18.80
2019-01-29T12:00:33.318Z,19.10
2019-01-29T12:03:02.330Z,19.00
2019-01-29T12:05:31.336Z,19.67
2019-01-29T12:08:00.395Z,19.30
2019-01-29T12:10:29.418Z,19.27
2019-01-29T12:12:58.474Z,19.30
2019-01-29T12:15:27.538Z,19.50
2019-01-29T12:17:56.598Z,19.20
2019-01-29T12:20:25.971Z,20.10
2019-01-29T12:22:55.052Z,30.33
2019-01-29T12:25:24.112Z,21.57
2019-01-29T12:27:53.182Z,19.63
2019-01-29T12:30:22.322Z,19.13
2019-01-29T12:32:51.511Z,19.50
2019-01-29T12:35:20.503Z,18.70
2019-01-29T12:37:49.547Z,19.00
2019-01-29T12:40:18.700Z,17.80
2019-01-29T12:42:47.874Z,18.80
2019-01-29T12:45:17.354Z,18.93
2019-01-29T12:47:46.709Z,17.40
2019-01-29T12:50:20.933Z,17.67
2019-01-29T12:52:55.973Z,17.77
2019-01-29T12:55:25.159Z,18.50
2019-01-29T12:57:54.165Z,18.83
2019-01-29T13:00:25.025Z,18.37
2019-01-29T13:02:54.373Z,17.83
2019-01-29T13:05:24.562Z,16.93
2019-01-29T13:07:53.620Z,17.40
2019-01-29T13:10:22.854Z,17.43
2019-01-29T13:12:51.915Z,16.97
2019-01-29T13:15:24.064Z,17.00
2019-01-29T13:17:53.218Z,16.57
2019-01-29T13:20:22.236Z,16.27
2019-01-29T13:22:51.612Z,17.10
2019-01-29T13:25:20.638Z,16.80
2019-01-29T13:27:49.692Z,17.87
2019-01-29T13:30:24.982Z,17.67
2019-01-29T13:32:54.200Z,17.13
2019-01-29T13:35:25.437Z,17.67
2019-01-29T13:37:54.522Z,17.53
2019-01-29T13:40:23.566Z,17.40
2019-01-29T13:42:52.584Z,17.50
2019-01-29T13:45:21.683Z,17.40
2019-01-29T13:47:50.693Z,17.63
2019-01-29T13:50:23.380Z,17.20
2019-01-29T13:52:52.461Z,17.23
2019-01-29T13:55:21.485Z,16.23
2019-01-29T13:57:50.546Z,16.47
2019-01-29T14:00:28.261Z,16.83
2019-01-29T14:02:57.413Z,17.67
2019-01-29T14:05:26.445Z,17.10
2019-01-29T14:07:55.497Z,16.60
2019-01-29T14:10:24.570Z,16.60
2019-01-29T14:12:53.738Z,16.47
2019-01-29T14:15:42.486Z,16.33
2019-01-29T14:18:12.330Z,16.97
2019-01-29T14:20:41.357Z,16.83
2019-01-29T14:23:10.550Z,18.33
2019-01-29T14:25:39.860Z,18.40
2019-01-29T14:28:09.129Z,18.50
2019-01-29T14:30:38.719Z,18.57
2019-01-29T14:33:08.566Z,17.00
2019-01-29T14:35:37.598Z,18.20
2019-01-29T14:38:47.953Z,17.10
2019-01-29T14:41:18.382Z,17.33
2019-01-29T14:43:52.842Z,18.47
2019-01-29T14:46:21.868Z,17.40
2019-01-29T14:48:50.948Z,18.10
2019-01-29T14:51:20.300Z,18.90
2019-01-29T14:53:49.286Z,19.10
2019-01-29T14:56:18.501Z,18.33
2019-01-29T14:58:47.574Z,18.33
2019-01-29T15:01:16.666Z,18.90
2019-01-29T15:03:45.681Z,18.10
2019-01-29T15:06:14.760Z,18.57
2019-01-29T15:08:43.774Z,19.37
2019-01-29T15:11:13.034Z,18.20
2019-01-29T15:13:42.101Z,19.40
2019-01-29T15:16:17.894Z,18.20
2019-01-29T15:18:54.417Z,18.43
2019-01-29T15:21:23.538Z,18.00
2019-01-29T15:23:52.488Z,18.20
2019-01-29T15:26:21.511Z,18.40
2019-01-29T15:28:50.570Z,18.10
2019-01-29T15:31:19.584Z,17.57
2019-01-29T15:33:48.926Z,18.37
2019-01-29T15:36:17.946Z,18.90
2019-01-29T15:38:46.992Z,18.80
2019-01-29T15:41:16.029Z,19.00
2019-01-29T15:43:45.093Z,18.23
2019-01-29T15:46:14.112Z,18.70
2019-01-29T15:48:43.177Z,19.10
2019-01-29T15:51:12.197Z,20.50
2019-01-29T15:53:41.244Z,20.03
2019-01-29T15:56:10.267Z,20.00
2019-01-29T15:58:39.331Z,19.57
2019-01-29T16:01:08.358Z,19.37
2019-01-29T16:03:37.435Z,20.97
2019-01-29T16:06:06.455Z,19.77
2019-01-29T16:08:35.505Z,20.40
2019-01-29T16:11:04.527Z,22.07
2019-01-29T16:13:33.594Z,21.43
2019-01-29T16:16:02.654Z,21.20
2019-01-29T16:18:31.704Z,20.50
2019-01-29T16:21:00.720Z,24.33
2019-01-29T16:23:29.796Z,22.70
2019-01-29T16:25:58.818Z,23.50
2019-01-29T16:28:27.998Z,22.97
2019-01-29T16:30:57.062Z,23.80
2019-01-29T16:33:26.138Z,22.30
2019-01-29T16:35:55.166Z,23.67
2019-01-29T16:38:24.169Z,22.40
2019-01-29T16:41:00.381Z,21.40
2019-01-29T16:43:24.034Z,24.03
2019-01-29T16:45:53.457Z,23.63
2019-01-29T16:48:22.476Z,21.83
2019-01-29T16:50:51.485Z,23.37
2019-01-29T16:53:20.552Z,21.63
2019-01-29T16:55:49.617Z,23.30
2019-01-29T16:58:18.642Z,22.70
2019-01-29T17:00:47.711Z,22.87
2019-01-29T17:03:16.978Z,23.20
2019-01-29T17:05:45.998Z,22.50
2019-01-29T17:08:15.068Z,22.00
2019-01-29T17:10:44.124Z,23.40
2019-01-29T17:13:13.412Z,23.23
2019-01-29T17:15:42.475Z,24.93
2019-01-29T17:18:11.771Z,27.17
2019-01-29T17:20:41.321Z,27.10
2019-01-29T17:23:10.777Z,25.00
2019-01-29T17:25:39.832Z,25.80
2019-01-29T17:28:08.919Z,26.00
2019-01-29T17:30:40.050Z,26.53
2019-01-29T17:33:09.840Z,26.27
2019-01-29T17:35:40.099Z,25.63
2019-01-29T17:38:09.183Z,27.60
2019-01-29T17:40:38.246Z,29.60
2019-01-29T17:43:07.666Z,31.63
2019-01-29T17:45:39.173Z,28.53
2019-01-29T17:48:08.420Z,27.23
2019-01-29T17:50:38.834Z,26.73
2019-01-29T17:53:08.546Z,27.23
2019-01-29T17:55:39.407Z,27.37
2019-01-29T17:58:09.025Z,27.60
2019-01-29T18:00:39.136Z,26.57
2019-01-29T18:03:08.515Z,26.20
2019-01-29T18:05:37.606Z,25.37
2019-01-29T18:08:06.824Z,25.47
2019-01-29T18:10:35.863Z,27.70
2019-01-29T18:13:04.936Z,25.87
2019-01-29T18:15:34.019Z,26.47
2019-01-29T18:18:03.005Z,26.60
2019-01-29T18:20:32.108Z,27.63
2019-01-29T18:23:01.197Z,27.97
2019-01-29T18:25:30.219Z,29.90
2019-01-29T18:28:01.421Z,31.17
2019-01-29T18:30:32.029Z,34.53
2019-01-29T18:33:01.015Z,30.87
2019-01-29T18:35:30.138Z,28.80
2019-01-29T18:37:59.145Z,27.83
2019-01-29T18:40:31.051Z,29.33
2019-01-29T18:43:00.104Z,29.23
2019-01-29T18:45:29.166Z,29.03
2019-01-29T18:47:58.217Z,29.20
2019-01-29T18:50:27.248Z,29.03
2019-01-29T18:52:56.294Z,29.00
2019-01-29T18:55:25.354Z,28.20
2019-01-29T18:57:54.389Z,29.17
2019-01-29T19:00:24.296Z,29.97
2019-01-29T19:02:53.385Z,27.67
2019-01-29T19:05:27.077Z,29.60
2019-01-29T19:07:56.142Z,29.57
2019-01-29T19:10:25.548Z,29.27
2019-01-29T19:12:54.622Z,30.63
2019-01-29T19:15:25.956Z,30.37
2019-01-29T19:17:55.165Z,31.30
2019-01-29T19:20:25.374Z,29.60
2019-01-29T19:22:54.451Z,29.90
2019-01-29T19:25:25.240Z,29.33
2019-01-29T19:27:54.293Z,30.37
2019-01-29T19:30:31.021Z,30.77
2019-01-29T19:33:00.081Z,30.07
2019-01-29T19:35:29.224Z,30.93
2019-01-29T19:37:58.277Z,31.57
2019-01-29T19:40:27.330Z,31.23
2019-01-29T19:42:56.376Z,30.43
2019-01-29T19:45:30.446Z,31.53
2019-01-29T19:48:00.606Z,30.90
2019-01-29T19:50:30.740Z,32.77
2019-01-29T19:53:00.015Z,33.30
2019-01-29T19:55:29.060Z,31.40
2019-01-29T19:58:08.386Z,32.60
2019-01-29T20:00:34.716Z,32.10
2019-01-29T20:03:03.973Z,35.07
2019-01-29T20:05:32.994Z,33.10
2019-01-29T20:08:02.065Z,32.87
2019-01-29T20:10:31.153Z,34.90
2019-01-29T20:13:01.220Z,35.37
2019-01-29T20:15:30.305Z,34.57
2019-01-29T20:17:59.321Z,32.20
2019-01-29T20:20:33.877Z,34.33
2019-01-29T20:23:08.175Z,32.20
2019-01-29T20:25:33.849Z,35.50
2019-01-29T20:28:02.926Z,32.80
2019-01-29T20:30:33.690Z,34.50
2019-01-29T20:33:05.235Z,34.10
2019-01-29T20:35:33.544Z,35.77
2019-01-29T20:38:02.581Z,34.23
2019-01-29T20:40:31.726Z,35.87
2019-01-29T20:43:00.781Z,36.60
2019-01-29T20:45:29.865Z,36.20
2019-01-29T20:47:58.898Z,36.37
2019-01-29T20:50:33.147Z,38.20
2019-01-29T20:53:02.308Z,37.73
2019-01-29T20:55:31.347Z,40.97
2019-01-29T20:58:00.378Z,39.03
2019-01-29T21:00:31.673Z,39.67
2019-01-29T21:03:00.746Z,38.00
2019-01-29T21:05:29.876Z,40.20
2019-01-29T21:08:00.637Z,39.23
2019-01-29T21:10:29.941Z,37.87
2019-01-29T21:12:59.058Z,40.67
2019-01-29T21:15:37.927Z,39.87
2019-01-29T21:17:59.309Z,41.40
2019-01-29T21:20:30.049Z,43.47
2019-01-29T21:22:59.113Z,42.90
2019-01-29T21:25:28.141Z,41.30
2019-01-29T21:27:57.238Z,42.37
2019-01-29T21:30:31.338Z,43.10
2019-01-29T21:33:00.432Z,40.03
2019-01-29T21:35:29.549Z,43.37
2019-01-29T21:37:58.665Z,40.40
2019-01-29T21:40:27.694Z,42.07
2019-01-29T21:42:56.941Z,44.63
2019-01-29T21:45:27.277Z,41.97
2019-01-29T21:47:57.930Z,43.27
2019-01-29T21:50:28.432Z,42.33
2019-01-29T21:52:57.458Z,42.80
2019-01-29T21:55:26.721Z,44.27
2019-01-29T21:57:55.793Z,43.40
2019-01-29T22:00:36.501Z,44.10
2019-01-29T22:03:06.469Z,43.20
2019-01-29T22:05:35.574Z,42.47
2019-01-29T22:08:06.093Z,45.13
2019-01-29T22:10:35.272Z,42.80
2019-01-29T22:13:05.032Z,42.00
2019-01-29T22:15:34.095Z,43.30
2019-01-29T22:18:03.172Z,45.23
2019-01-29T22:20:32.198Z,44.37
2019-01-29T22:23:01.624Z,45.33
2019-01-29T22:25:30.698Z,44.20
2019-01-29T22:27:59.729Z,44.13
2019-01-29T22:30:30.825Z,46.00
2019-01-29T22:33:00.006Z,45.07
2019-01-29T22:35:29.046Z,44.30
2019-01-29T22:37:58.413Z,45.13
2019-01-29T22:40:28.542Z,44.40
2019-01-29T22:42:58.574Z,45.50
2019-01-29T22:45:27.738Z,45.33
2019-01-29T22:47:56.817Z,44.77
2019-01-29T22:50:28.089Z,44.47
2019-01-29T22:52:57.157Z,45.27
2019-01-29T22:55:26.234Z,45.00
2019-01-29T22:57:55.297Z,47.53
2019-01-29T23:00:55.826Z,44.50
2019-01-29T23:03:30.477Z,41.13
2019-01-29T23:06:37.166Z,46.20
2019-01-29T23:09:09.869Z,42.90
2019-01-29T23:11:38.977Z,45.03
2019-01-29T23:14:08.980Z,44.23
2019-01-29T23:16:38.010Z,45.53
2019-01-29T23:19:07.590Z,43.70
2019-01-29T23:21:36.642Z,45.90
2019-01-29T23:24:06.419Z,44.63
2019-01-29T23:26:35.491Z,42.60
2019-01-29T23:29:04.647Z,44.57
2019-01-29T23:31:33.717Z,45.23
2019-01-29T23:34:02.878Z,43.70
2019-01-29T23:36:31.934Z,45.00
2019-01-29T23:39:01.011Z,42.43
2019-01-29T23:41:29.975Z,44.50
2019-01-29T23:43:59.090Z,43.53
2019-01-29T23:46:28.107Z,45.20
2019-01-29T23:48:57.577Z,45.07
2019-01-29T23:51:26.663Z,44.40
2019-01-29T23:53:55.741Z,44.13
2019-01-29T23:56:24.859Z,45.97
2019-01-29T23:58:53.929Z,40.93
